createdAt,value
2018-03-27T00:00:10.519Z,31.10
2018-03-27T00:02:38.822Z,30.37
2018-03-27T00:05:06.332Z,29.60
2018-03-27T00:07:33.888Z,29.30
2018-03-27T00:10:01.415Z,32.17
2018-03-27T00:12:28.939Z,31.27
2018-03-27T00:14:56.627Z,30.43
2018-03-27T00:17:24.910Z,31.23
2018-03-27T00:19:52.515Z,29.43
2018-03-27T00:22:20.056Z,30.00
2018-03-27T00:24:47.654Z,30.07
2018-03-27T00:27:14.679Z,30.27
2018-03-27T00:29:53.996Z,31.60
2018-03-27T00:32:34.287Z,31.83
2018-03-27T00:35:13.650Z,31.10
2018-03-27T00:37:53.194Z,31.10
2018-03-27T00:40:33.360Z,31.30
2018-03-27T00:43:04.737Z,31.93
2018-03-27T00:45:32.249Z,31.97
2018-03-27T00:48:01.310Z,31.80
2018-03-27T00:50:28.814Z,30.53
2018-03-27T00:52:57.833Z,31.27
2018-03-27T00:55:26.135Z,31.87
2018-03-27T00:57:53.669Z,32.07
2018-03-27T01:00:21.208Z,32.93
2018-03-27T01:02:48.754Z,32.50
2018-03-27T01:05:16.274Z,29.37
2018-03-27T01:07:44.579Z,31.07
2018-03-27T01:10:12.132Z,32.27
2018-03-27T01:12:39.667Z,32.83
2018-03-27T01:15:08.025Z,31.17
2018-03-27T01:17:35.573Z,33.00
2018-03-27T01:20:03.108Z,31.13
2018-03-27T01:22:31.383Z,31.07
2018-03-27T01:24:59.703Z,31.20
2018-03-27T01:27:27.218Z,32.70
2018-03-27T01:29:55.500Z,31.13
2018-03-27T01:32:23.839Z,32.90
2018-03-27T01:34:51.363Z,32.40
2018-03-27T01:37:18.884Z,30.97
2018-03-27T01:39:46.439Z,30.90
2018-03-27T01:42:13.942Z,32.27
2018-03-27T01:44:42.218Z,31.07
2018-03-27T01:47:10.527Z,31.47
2018-03-27T01:49:38.055Z,32.40
2018-03-27T01:52:06.327Z,32.23
2018-03-27T01:54:33.863Z,31.60
2018-03-27T01:57:01.392Z,34.57
2018-03-27T01:59:28.930Z,32.97
2018-03-27T02:01:57.247Z,32.37
2018-03-27T02:04:24.778Z,33.30
2018-03-27T02:06:53.076Z,31.50
2018-03-27T02:09:21.381Z,32.83
2018-03-27T02:11:54.672Z,32.47
2018-03-27T02:14:27.824Z,31.07
2018-03-27T02:17:01.839Z,33.07
2018-03-27T02:19:35.038Z,28.80
2018-03-27T02:22:02.865Z,33.07
2018-03-27T02:24:33.931Z,31.20
2018-03-27T02:27:01.470Z,30.03
2018-03-27T02:29:28.986Z,33.07
2018-03-27T02:31:57.262Z,31.57
2018-03-27T02:34:25.703Z,33.07
2018-03-27T02:36:53.212Z,31.63
2018-03-27T02:39:21.487Z,33.27
2018-03-27T02:41:49.798Z,34.47
2018-03-27T02:44:17.319Z,33.50
2018-03-27T02:46:44.835Z,33.67
2018-03-27T02:49:12.371Z,31.90
2018-03-27T02:51:40.675Z,34.40
2018-03-27T02:54:08.196Z,32.47
2018-03-27T02:56:35.816Z,32.23
2018-03-27T02:59:03.321Z,31.43
2018-03-27T03:01:30.846Z,32.47
2018-03-27T03:03:58.926Z,33.03
2018-03-27T03:06:26.473Z,33.23
2018-03-27T03:08:54.102Z,33.37
2018-03-27T03:11:21.651Z,30.93
2018-03-27T03:13:49.150Z,30.80
2018-03-27T03:16:17.442Z,32.80
2018-03-27T03:18:45.190Z,32.63
2018-03-27T03:21:13.509Z,33.07
2018-03-27T03:23:41.076Z,31.97
2018-03-27T03:26:08.675Z,32.70
2018-03-27T03:28:36.211Z,32.80
2018-03-27T03:31:03.736Z,32.57
2018-03-27T03:33:31.305Z,34.37
2018-03-27T03:35:58.889Z,34.00
2018-03-27T03:38:26.410Z,33.87
2018-03-27T03:40:53.942Z,32.57
2018-03-27T03:43:21.450Z,32.13
2018-03-27T03:45:49.732Z,33.50
2018-03-27T03:48:18.042Z,33.83
2018-03-27T03:50:45.568Z,35.70
2018-03-27T03:53:13.179Z,34.70
2018-03-27T03:55:40.714Z,34.00
2018-03-27T03:58:09.022Z,36.37
2018-03-27T04:00:36.548Z,35.80
2018-03-27T04:03:04.870Z,35.90
2018-03-27T04:05:32.399Z,35.03
2018-03-27T04:08:00.705Z,33.73
2018-03-27T04:10:28.254Z,33.63
2018-03-27T04:12:55.787Z,36.77
2018-03-27T04:15:23.311Z,36.03
2018-03-27T04:17:50.895Z,34.10
2018-03-27T04:20:19.392Z,35.00
2018-03-27T04:22:46.904Z,35.97
2018-03-27T04:25:14.442Z,34.63
2018-03-27T04:27:42.742Z,36.67
2018-03-27T04:30:11.019Z,40.40
2018-03-27T04:32:39.331Z,35.37
2018-03-27T04:35:06.847Z,35.10
2018-03-27T04:37:35.899Z,39.37
2018-03-27T04:40:03.457Z,34.73
2018-03-27T04:42:30.998Z,36.63
2018-03-27T04:44:59.279Z,34.73
2018-03-27T04:47:27.580Z,36.93
2018-03-27T04:49:55.100Z,37.37
2018-03-27T04:52:22.604Z,35.17
2018-03-27T04:54:50.130Z,38.97
2018-03-27T04:57:17.645Z,35.90
2018-03-27T04:59:45.309Z,34.47
2018-03-27T05:02:12.867Z,34.17
2018-03-27T05:04:40.399Z,34.13
2018-03-27T05:07:08.698Z,36.93
2018-03-27T05:09:37.442Z,38.50
2018-03-27T05:12:05.070Z,39.83
2018-03-27T05:14:35.142Z,39.97
2018-03-27T05:17:02.853Z,38.13
2018-03-27T05:19:30.384Z,39.43
2018-03-27T05:21:58.035Z,36.00
2018-03-27T05:24:26.366Z,38.03
2018-03-27T05:26:53.908Z,39.40
2018-03-27T05:29:22.183Z,36.67
2018-03-27T05:31:50.506Z,38.93
2018-03-27T05:34:18.021Z,37.27
2018-03-27T05:36:47.047Z,39.80
2018-03-27T05:39:15.361Z,36.93
2018-03-27T05:41:42.872Z,36.80
2018-03-27T05:44:10.379Z,38.60
2018-03-27T05:46:37.909Z,35.53
2018-03-27T05:49:06.189Z,37.37
2018-03-27T05:51:34.463Z,37.63
2018-03-27T05:54:02.039Z,37.00
2018-03-27T05:56:30.380Z,37.10
2018-03-27T05:58:57.858Z,39.20
2018-03-27T06:01:25.414Z,36.13
2018-03-27T06:03:52.927Z,36.57
2018-03-27T06:06:21.224Z,35.87
2018-03-27T06:08:48.764Z,37.30
2018-03-27T06:11:17.126Z,41.67
2018-03-27T06:13:45.416Z,36.27
2018-03-27T06:16:13.703Z,39.27
2018-03-27T06:18:41.980Z,36.07
2018-03-27T06:21:10.414Z,37.23
2018-03-27T06:23:38.050Z,37.07
2018-03-27T06:26:05.578Z,42.03
2018-03-27T06:28:33.095Z,40.70
2018-03-27T06:31:00.642Z,36.27
2018-03-27T06:33:28.815Z,38.00
2018-03-27T06:35:56.417Z,36.30
2018-03-27T06:38:23.946Z,37.27
2018-03-27T06:40:52.231Z,41.30
2018-03-27T06:43:19.754Z,41.37
2018-03-27T06:45:48.805Z,38.27
2018-03-27T06:48:16.325Z,42.00
2018-03-27T06:50:44.637Z,38.00
2018-03-27T06:53:12.185Z,39.83
2018-03-27T06:55:39.708Z,37.70
2018-03-27T06:58:07.228Z,38.53
2018-03-27T07:00:34.767Z,38.23
2018-03-27T07:03:03.042Z,38.80
2018-03-27T07:05:30.766Z,36.87
2018-03-27T07:07:58.315Z,38.67
2018-03-27T07:10:25.863Z,38.10
2018-03-27T07:12:54.158Z,39.70
2018-03-27T07:15:21.728Z,39.53
2018-03-27T07:17:49.274Z,42.00
2018-03-27T07:20:16.835Z,42.27
2018-03-27T07:22:45.155Z,42.00
2018-03-27T07:25:15.038Z,42.70
2018-03-27T07:27:43.324Z,42.10
2018-03-27T07:30:11.630Z,43.17
2018-03-27T07:32:39.342Z,44.17
2018-03-27T07:35:06.917Z,40.77
2018-03-27T07:37:35.230Z,38.93
2018-03-27T07:40:02.758Z,39.10
2018-03-27T07:42:30.388Z,43.00
2018-03-27T07:44:57.959Z,42.80
2018-03-27T07:47:25.482Z,38.97
2018-03-27T07:49:53.760Z,40.10
2018-03-27T07:52:21.314Z,41.07
2018-03-27T07:54:49.639Z,39.83
2018-03-27T07:57:17.194Z,34.10
2018-03-27T07:59:44.739Z,28.20
2018-03-27T08:02:12.271Z,29.00
2018-03-27T08:04:39.809Z,25.33
2018-03-27T08:07:07.368Z,18.07
2018-03-27T08:09:34.909Z,16.53
2018-03-27T08:12:02.442Z,12.60
2018-03-27T08:14:30.755Z,9.97
2018-03-27T08:16:58.286Z,8.83
2018-03-27T08:19:26.567Z,9.60
2018-03-27T08:21:54.882Z,10.03
2018-03-27T08:24:22.469Z,9.90
2018-03-27T08:26:50.763Z,10.77
2018-03-27T08:29:18.331Z,10.13
2018-03-27T08:31:45.891Z,10.20
2018-03-27T08:34:13.442Z,9.90
2018-03-27T08:36:41.022Z,8.57
2018-03-27T08:39:08.656Z,9.80
2018-03-27T08:41:36.179Z,7.83
2018-03-27T08:44:03.705Z,7.50
2018-03-27T08:46:31.224Z,8.37
2018-03-27T08:48:59.512Z,7.97
2018-03-27T08:51:27.048Z,8.63
2018-03-27T08:53:54.666Z,10.47
2018-03-27T08:56:22.192Z,10.70
2018-03-27T08:58:50.516Z,15.40
2018-03-27T09:01:18.064Z,17.90
2018-03-27T09:03:45.606Z,18.13
2018-03-27T09:06:13.912Z,18.73
2018-03-27T09:08:41.442Z,17.27
2018-03-27T09:11:08.961Z,16.83
2018-03-27T09:13:36.513Z,17.07
2018-03-27T09:16:04.032Z,16.03
2018-03-27T09:18:31.551Z,15.27
2018-03-27T09:20:59.083Z,11.17
2018-03-27T09:23:27.371Z,12.97
2018-03-27T09:25:54.896Z,13.50
2018-03-27T09:28:22.487Z,11.27
2018-03-27T09:30:50.768Z,12.53
2018-03-27T09:33:19.066Z,11.23
2018-03-27T09:35:46.618Z,11.83
2018-03-27T09:38:14.894Z,11.07
2018-03-27T09:40:43.190Z,11.20
2018-03-27T09:43:10.727Z,12.60
2018-03-27T09:45:39.024Z,11.77
2018-03-27T09:48:07.302Z,11.50
2018-03-27T09:50:35.718Z,11.97
2018-03-27T09:53:03.291Z,11.90
2018-03-27T09:55:30.812Z,11.80
2018-03-27T09:57:59.158Z,12.27
2018-03-27T10:00:32.330Z,13.07
2018-03-27T10:02:59.882Z,12.60
2018-03-27T10:05:27.443Z,14.53
2018-03-27T10:07:55.004Z,14.80
2018-03-27T10:10:22.589Z,13.90
2018-03-27T10:12:50.137Z,13.73
2018-03-27T10:15:17.703Z,14.13
2018-03-27T10:17:45.319Z,14.67
2018-03-27T10:20:13.631Z,13.50
2018-03-27T10:22:41.932Z,13.63
2018-03-27T10:25:09.480Z,14.23
2018-03-27T10:27:37.854Z,14.30
2018-03-27T10:30:06.245Z,13.63
2018-03-27T10:32:33.804Z,14.93
2018-03-27T10:35:02.093Z,12.53
2018-03-27T10:37:29.653Z,12.30
2018-03-27T10:39:57.980Z,13.33
2018-03-27T10:42:25.494Z,12.70
2018-03-27T10:44:53.914Z,11.57
2018-03-27T10:47:21.482Z,11.83
2018-03-27T10:49:49.034Z,11.43
2018-03-27T10:52:16.550Z,11.93
2018-03-27T10:54:44.108Z,11.63
2018-03-27T10:57:13.162Z,10.68
2018-03-27T10:59:40.706Z,10.77
2018-03-27T11:02:09.019Z,11.20
2018-03-27T11:04:36.560Z,11.63
2018-03-27T11:07:04.098Z,11.80
2018-03-27T11:09:32.409Z,11.10
2018-03-27T11:12:00.752Z,12.80
2018-03-27T11:14:28.269Z,12.93
2018-03-27T11:16:55.842Z,11.25
2018-03-27T11:19:23.367Z,12.55
2018-03-27T11:21:51.659Z,12.60
2018-03-27T11:24:19.975Z,11.48
2018-03-27T11:26:47.495Z,12.00
2018-03-27T11:29:15.879Z,12.43
2018-03-27T11:31:43.559Z,12.43
2018-03-27T11:34:11.108Z,12.93
2018-03-27T11:36:39.420Z,13.02
2018-03-27T11:39:06.982Z,13.15
2018-03-27T11:41:34.511Z,13.82
2018-03-27T11:44:03.053Z,12.93
2018-03-27T11:46:30.605Z,13.10
2018-03-27T11:48:58.129Z,12.70
2018-03-27T11:51:26.413Z,12.80
2018-03-27T11:53:53.984Z,12.10
2018-03-27T11:56:22.274Z,12.93
2018-03-27T11:58:50.613Z,12.40
2018-03-27T12:01:18.172Z,12.52
2018-03-27T12:03:46.459Z,12.05
2018-03-27T12:06:14.767Z,10.48
2018-03-27T12:08:43.082Z,10.35
2018-03-27T12:11:10.598Z,11.20
2018-03-27T12:13:38.126Z,11.00
2018-03-27T12:16:05.948Z,12.32
2018-03-27T12:18:34.242Z,10.40
2018-03-27T12:21:02.517Z,10.10
2018-03-27T12:23:30.864Z,10.48
2018-03-27T12:25:58.378Z,11.10
2018-03-27T12:28:26.655Z,11.67
2018-03-27T12:30:54.959Z,11.00
2018-03-27T12:33:22.699Z,10.80
2018-03-27T12:35:50.609Z,11.20
2018-03-27T12:38:18.177Z,11.63
2018-03-27T12:40:45.713Z,12.10
2018-03-27T12:43:13.994Z,12.40
2018-03-27T12:45:41.571Z,11.33
2018-03-27T12:48:09.099Z,12.83
2018-03-27T12:50:36.620Z,12.43
2018-03-27T12:53:04.158Z,11.70
2018-03-27T12:55:31.674Z,11.73
2018-03-27T12:57:59.205Z,11.67
2018-03-27T13:00:26.735Z,11.90
2018-03-27T13:02:55.028Z,11.97
2018-03-27T13:05:22.557Z,11.53
2018-03-27T13:07:50.878Z,12.07
2018-03-27T13:10:18.416Z,11.03
2018-03-27T13:12:46.714Z,11.90
2018-03-27T13:15:14.241Z,10.37
2018-03-27T13:17:43.316Z,10.27
2018-03-27T13:20:10.802Z,11.27
2018-03-27T13:22:39.123Z,11.73
2018-03-27T13:25:06.703Z,11.50
2018-03-27T13:27:34.210Z,11.33
2018-03-27T13:30:01.836Z,11.57
2018-03-27T13:32:29.424Z,11.17
2018-03-27T13:34:57.020Z,11.27
2018-03-27T13:37:25.339Z,11.57
2018-03-27T13:39:52.894Z,10.13
2018-03-27T13:42:20.418Z,11.17
2018-03-27T13:44:48.738Z,11.17
2018-03-27T13:47:16.294Z,11.20
2018-03-27T13:49:44.570Z,12.37
2018-03-27T13:52:12.870Z,11.57
2018-03-27T13:54:40.381Z,11.13
2018-03-27T13:57:07.972Z,12.20
2018-03-27T13:59:35.517Z,12.60
2018-03-27T14:02:03.254Z,11.90
2018-03-27T14:04:30.793Z,12.57
2018-03-27T14:06:58.357Z,11.60
2018-03-27T14:09:25.891Z,12.07
2018-03-27T14:11:53.423Z,11.07
2018-03-27T14:14:20.981Z,11.57
2018-03-27T14:16:48.909Z,12.20
2018-03-27T14:19:17.201Z,11.60
2018-03-27T14:21:45.496Z,11.10
2018-03-27T14:24:13.022Z,10.73
2018-03-27T14:26:40.574Z,11.77
2018-03-27T14:29:08.921Z,11.27
2018-03-27T14:31:36.682Z,11.57
2018-03-27T14:34:04.511Z,11.40
2018-03-27T14:36:32.196Z,11.93
2018-03-27T14:39:00.550Z,12.07
2018-03-27T14:41:29.049Z,11.97
2018-03-27T14:43:56.659Z,10.83
2018-03-27T14:46:24.194Z,11.17
2018-03-27T14:48:52.503Z,11.33
2018-03-27T14:51:20.063Z,11.17
2018-03-27T14:53:47.608Z,11.23
2018-03-27T14:56:15.887Z,12.33
2018-03-27T14:58:44.194Z,11.87
2018-03-27T15:01:11.731Z,11.40
2018-03-27T15:03:40.006Z,11.20
2018-03-27T15:06:08.387Z,11.50
2018-03-27T15:08:36.662Z,11.60
2018-03-27T15:11:04.178Z,11.70
2018-03-27T15:13:31.782Z,11.40
2018-03-27T15:16:00.803Z,11.80
2018-03-27T15:18:29.083Z,11.97
2018-03-27T15:20:57.438Z,11.80
2018-03-27T15:23:24.948Z,12.23
2018-03-27T15:25:52.474Z,12.33
2018-03-27T15:28:20.780Z,14.53
2018-03-27T15:30:49.058Z,15.33
2018-03-27T15:33:17.954Z,16.63
2018-03-27T15:35:46.278Z,15.47
2018-03-27T15:38:13.891Z,14.80
2018-03-27T15:40:41.829Z,15.43
2018-03-27T15:43:10.186Z,14.03
2018-03-27T15:45:37.828Z,13.87
2018-03-27T15:48:06.103Z,14.80
2018-03-27T15:50:34.499Z,13.63
2018-03-27T15:53:02.027Z,14.27
2018-03-27T15:55:31.378Z,14.77
2018-03-27T15:57:58.945Z,15.40
2018-03-27T16:00:26.463Z,14.93
2018-03-27T16:02:54.015Z,14.27
2018-03-27T16:05:21.590Z,13.90
2018-03-27T16:07:49.155Z,13.97
2018-03-27T16:10:16.810Z,14.13
2018-03-27T16:12:44.518Z,14.87
2018-03-27T16:15:12.065Z,14.47
2018-03-27T16:17:39.595Z,14.63
2018-03-27T16:20:07.159Z,13.53
2018-03-27T16:22:34.691Z,13.90
2018-03-27T16:25:02.219Z,13.90
2018-03-27T16:27:29.836Z,13.47
2018-03-27T16:29:57.403Z,14.27
2018-03-27T16:32:24.924Z,14.17
2018-03-27T16:34:53.246Z,14.60
2018-03-27T16:37:20.900Z,14.63
2018-03-27T16:39:49.016Z,15.13
2018-03-27T16:42:17.512Z,13.80
2018-03-27T16:44:45.912Z,13.90
2018-03-27T16:47:14.219Z,13.80
2018-03-27T16:49:41.767Z,13.40
2018-03-27T16:52:10.049Z,15.10
2018-03-27T16:54:38.363Z,15.27
2018-03-27T16:57:05.894Z,14.73
2018-03-27T16:59:34.416Z,15.00
2018-03-27T17:02:01.943Z,14.63
2018-03-27T17:04:30.256Z,14.50
2018-03-27T17:06:57.771Z,15.20
2018-03-27T17:09:25.307Z,15.87
2018-03-27T17:11:52.867Z,15.47
2018-03-27T17:14:20.392Z,15.87
2018-03-27T17:16:48.685Z,15.30
2018-03-27T17:19:16.244Z,13.97
2018-03-27T17:21:44.793Z,13.93
2018-03-27T17:24:13.082Z,13.83
2018-03-27T17:26:40.703Z,14.87
2018-03-27T17:29:08.456Z,14.20
2018-03-27T17:31:35.991Z,15.33
2018-03-27T17:34:04.331Z,15.20
2018-03-27T17:36:31.949Z,15.07
2018-03-27T17:39:00.242Z,14.60
2018-03-27T17:41:28.031Z,14.23
2018-03-27T17:43:55.602Z,16.07
2018-03-27T17:46:23.126Z,14.73
2018-03-27T17:48:51.437Z,15.20
2018-03-27T17:51:18.951Z,15.00
2018-03-27T17:53:47.258Z,14.20
2018-03-27T17:56:15.563Z,15.23
2018-03-27T17:58:43.092Z,14.70
2018-03-27T18:01:12.437Z,18.73
2018-03-27T18:03:40.018Z,14.77
2018-03-27T18:06:07.535Z,16.27
2018-03-27T18:08:35.828Z,15.13
2018-03-27T18:11:03.443Z,15.70
2018-03-27T18:13:32.142Z,16.00
2018-03-27T18:15:59.684Z,15.67
2018-03-27T18:18:27.294Z,16.47
2018-03-27T18:20:54.849Z,16.77
2018-03-27T18:23:22.402Z,15.77
2018-03-27T18:25:49.991Z,14.73
2018-03-27T18:28:18.278Z,15.17
2018-03-27T18:30:46.580Z,14.23
2018-03-27T18:33:14.123Z,14.80
2018-03-27T18:35:41.657Z,15.53
2018-03-27T18:38:09.399Z,14.67
2018-03-27T18:40:36.961Z,15.23
2018-03-27T18:43:04.592Z,15.77
2018-03-27T18:45:32.867Z,15.07
2018-03-27T18:48:01.972Z,16.07
2018-03-27T18:50:29.482Z,14.10
2018-03-27T18:52:57.011Z,14.13
2018-03-27T18:55:25.320Z,15.33
2018-03-27T18:57:52.871Z,15.77
2018-03-27T19:00:20.382Z,16.03
2018-03-27T19:02:47.919Z,15.30
2018-03-27T19:05:15.452Z,14.63
2018-03-27T19:07:42.980Z,15.43
2018-03-27T19:10:12.032Z,14.33
2018-03-27T19:12:39.709Z,13.13
2018-03-27T19:15:07.230Z,14.87
2018-03-27T19:17:35.566Z,14.40
2018-03-27T19:20:03.099Z,14.03
2018-03-27T19:22:30.635Z,14.63
2018-03-27T19:24:58.281Z,13.93
2018-03-27T19:27:25.887Z,14.87
2018-03-27T19:29:54.748Z,14.97
2018-03-27T19:32:22.623Z,15.03
2018-03-27T19:34:50.130Z,14.97
2018-03-27T19:37:17.820Z,15.87
2018-03-27T19:39:45.427Z,16.17
2018-03-27T19:42:12.966Z,15.77
2018-03-27T19:44:40.658Z,17.27
2018-03-27T19:47:08.967Z,18.30
2018-03-27T19:49:36.674Z,20.23
2018-03-27T19:52:04.338Z,19.53
2018-03-27T19:54:31.890Z,19.77
2018-03-27T19:56:59.508Z,21.33
2018-03-27T19:59:27.826Z,21.60
2018-03-27T20:01:55.374Z,20.70
2018-03-27T20:04:23.003Z,20.33
2018-03-27T20:06:50.671Z,20.50
2018-03-27T20:09:18.230Z,20.20
2018-03-27T20:11:45.977Z,20.30
2018-03-27T20:14:13.492Z,20.63
2018-03-27T20:16:41.796Z,20.73
2018-03-27T20:19:09.310Z,21.20
2018-03-27T20:21:36.831Z,21.57
2018-03-27T20:24:04.368Z,19.90
2018-03-27T20:26:32.732Z,20.63
2018-03-27T20:29:01.058Z,20.97
2018-03-27T20:31:28.606Z,21.37
2018-03-27T20:33:56.894Z,20.70
2018-03-27T20:36:24.578Z,20.93
2018-03-27T20:38:52.131Z,20.57
2018-03-27T20:41:19.659Z,20.87
2018-03-27T20:43:47.950Z,21.80
2018-03-27T20:46:16.339Z,21.93
2018-03-27T20:48:44.618Z,20.40
2018-03-27T20:51:12.914Z,21.43
2018-03-27T20:53:40.472Z,19.87
2018-03-27T20:56:08.747Z,21.50
2018-03-27T20:58:37.268Z,21.17
2018-03-27T21:01:04.816Z,20.80
2018-03-27T21:03:32.323Z,21.00
2018-03-27T21:05:59.847Z,21.30
2018-03-27T21:08:27.391Z,20.47
2018-03-27T21:10:56.726Z,20.77
2018-03-27T21:13:24.254Z,20.90
2018-03-27T21:15:52.562Z,20.83
2018-03-27T21:18:20.083Z,20.87
2018-03-27T21:20:48.364Z,21.03
2018-03-27T21:23:17.411Z,20.77
2018-03-27T21:25:44.934Z,20.30
2018-03-27T21:28:13.209Z,19.87
2018-03-27T21:30:40.749Z,20.10
2018-03-27T21:33:08.279Z,20.73
2018-03-27T21:35:35.802Z,19.97
2018-03-27T21:38:03.347Z,20.40
2018-03-27T21:40:31.494Z,20.67
2018-03-27T21:42:59.007Z,21.10
2018-03-27T21:45:27.336Z,21.70
2018-03-27T21:47:54.947Z,22.10
2018-03-27T21:50:22.466Z,21.70
2018-03-27T21:52:50.019Z,21.03
2018-03-27T21:55:17.568Z,21.40
2018-03-27T21:57:45.890Z,21.33
2018-03-27T22:00:13.418Z,21.80
2018-03-27T22:02:41.723Z,21.43
2018-03-27T22:05:10.161Z,21.37
2018-03-27T22:07:38.498Z,22.03
2018-03-27T22:10:06.860Z,21.07
2018-03-27T22:12:34.393Z,21.27
2018-03-27T22:15:02.010Z,21.43
2018-03-27T22:17:32.666Z,21.63
2018-03-27T22:20:00.224Z,22.07
2018-03-27T22:22:27.783Z,22.53
2018-03-27T22:24:55.344Z,22.97
2018-03-27T22:27:22.963Z,22.93
2018-03-27T22:29:51.280Z,21.40
2018-03-27T22:32:18.819Z,22.13
2018-03-27T22:34:47.094Z,22.03
2018-03-27T22:37:15.388Z,22.53
2018-03-27T22:39:42.921Z,20.03
2018-03-27T22:42:11.234Z,22.03
2018-03-27T22:44:39.549Z,21.63
2018-03-27T22:47:07.106Z,20.73
2018-03-27T22:49:34.747Z,21.10
2018-03-27T22:52:02.302Z,22.40
2018-03-27T22:54:30.580Z,21.93
2018-03-27T22:56:58.850Z,20.70
2018-03-27T22:59:27.148Z,21.53
2018-03-27T23:01:55.428Z,21.80
2018-03-27T23:04:24.182Z,21.27
2018-03-27T23:06:51.833Z,21.90
2018-03-27T23:09:19.371Z,21.47
2018-03-27T23:11:46.892Z,23.63
2018-03-27T23:14:14.479Z,23.07
2018-03-27T23:16:42.762Z,22.33
2018-03-27T23:19:11.039Z,21.17
2018-03-27T23:21:39.347Z,23.10
2018-03-27T23:24:06.863Z,23.90
2018-03-27T23:26:35.265Z,22.77
2018-03-27T23:29:03.563Z,23.93
2018-03-27T23:31:31.883Z,22.77
2018-03-27T23:33:59.425Z,23.30
2018-03-27T23:36:27.199Z,23.23
2018-03-27T23:38:54.719Z,22.20
2018-03-27T23:41:22.242Z,23.03
2018-03-27T23:43:49.771Z,22.40
2018-03-27T23:46:18.059Z,22.83
2018-03-27T23:48:45.765Z,23.13
2018-03-27T23:51:15.061Z,23.37
2018-03-27T23:53:42.765Z,23.50
2018-03-27T23:56:11.058Z,23.07
2018-03-27T23:58:38.603Z,22.67
